sensor_id;sensor_type;location;lat;lon;timestamp;temperature;humidity
35523;DHT22;61478;50.820;4.330;2023-01-08T00:01:05;10.80;99.90
35523;DHT22;61478;50.820;4.330;2023-01-08T00:03:32;10.80;99.90
35523;DHT22;61478;50.820;4.330;2023-01-08T00:06:02;10.80;99.90
35523;DHT22;61478;50.820;4.330;2023-01-08T00:08:30;10.80;99.90
35523;DHT22;61478;50.820;4.330;2023-01-08T00:10:56;10.80;99.90
35523;DHT22;61478;50.820;4.330;2023-01-08T00:13:22;10.80;99.90
35523;DHT22;61478;50.820;4.330;2023-01-08T00:15:48;10.80;99.90
35523;DHT22;61478;50.820;4.330;2023-01-08T00:18:15;10.40;99.90
35523;DHT22;61478;50.820;4.330;2023-01-08T00:20:45;9.80;99.90
35523;DHT22;61478;50.820;4.330;2023-01-08T00:23:14;9.50;99.90
35523;DHT22;61478;50.820;4.330;2023-01-08T00:25:46;9.40;99.90
35523;DHT22;61478;50.820;4.330;2023-01-08T00:28:15;9.30;99.90
35523;DHT22;61478;50.820;4.330;2023-01-08T00:30:42;9.20;99.90
35523;DHT22;61478;50.820;4.330;2023-01-08T00:33:09;9.20;99.90
35523;DHT22;61478;50.820;4.330;2023-01-08T00:35:37;9.10;99.90
35523;DHT22;61478;50.820;4.330;2023-01-08T00:38:02;8.90;99.90
35523;DHT22;61478;50.820;4.330;2023-01-08T00:40:29;8.90;99.90
35523;DHT22;61478;50.820;4.330;2023-01-08T00:42:55;8.90;99.90
35523;DHT22;61478;50.820;4.330;2023-01-08T00:45:21;9.00;99.90
35523;DHT22;61478;50.820;4.330;2023-01-08T00:47:47;8.90;99.90
35523;DHT22;61478;50.820;4.330;2023-01-08T00:50:16;8.90;99.90
35523;DHT22;61478;50.820;4.330;2023-01-08T00:52:42;8.80;99.90
35523;DHT22;61478;50.820;4.330;2023-01-08T00:55:08;8.90;99.90
35523;DHT22;61478;50.820;4.330;2023-01-08T00:57:35;8.90;99.90
35523;DHT22;61478;50.820;4.330;2023-01-08T01:00:07;9.00;99.90
35523;DHT22;61478;50.820;4.330;2023-01-08T01:02:37;9.00;99.90
35523;DHT22;61478;50.820;4.330;2023-01-08T01:05:04;9.00;99.90
35523;DHT22;61478;50.820;4.330;2023-01-08T01:07:32;9.00;99.90
35523;DHT22;61478;50.820;4.330;2023-01-08T01:09:58;9.00;99.90
35523;DHT22;61478;50.820;4.330;2023-01-08T01:12:25;9.00;99.90
35523;DHT22;61478;50.820;4.330;2023-01-08T01:14:54;9.00;99.90
35523;DHT22;61478;50.820;4.330;2023-01-08T01:17:20;9.00;99.90
35523;DHT22;61478;50.820;4.330;2023-01-08T01:19:47;9.00;99.90
35523;DHT22;61478;50.820;4.330;2023-01-08T01:22:13;9.10;99.90
35523;DHT22;61478;50.820;4.330;2023-01-08T01:24:39;9.00;99.90
35523;DHT22;61478;50.820;4.330;2023-01-08T01:27:12;9.10;99.90
35523;DHT22;61478;50.820;4.330;2023-01-08T01:29:40;9.10;99.90
35523;DHT22;61478;50.820;4.330;2023-01-08T01:32:15;9.10;99.90
35523;DHT22;61478;50.820;4.330;2023-01-08T01:34:41;9.10;99.90
35523;DHT22;61478;50.820;4.330;2023-01-08T01:37:11;9.10;99.90
35523;DHT22;61478;50.820;4.330;2023-01-08T01:39:39;9.10;99.90
35523;DHT22;61478;50.820;4.330;2023-01-08T01:42:17;9.10;99.90
35523;DHT22;61478;50.820;4.330;2023-01-08T01:47:38;9.10;99.90
35523;DHT22;61478;50.820;4.330;2023-01-08T01:53:08;9.20;99.90
35523;DHT22;61478;50.820;4.330;2023-01-08T01:55:38;9.20;99.90
35523;DHT22;61478;50.820;4.330;2023-01-08T01:58:16;9.20;99.90
35523;DHT22;61478;50.820;4.330;2023-01-08T02:00:43;9.20;99.90
35523;DHT22;61478;50.820;4.330;2023-01-08T02:03:13;9.20;99.90
35523;DHT22;61478;50.820;4.330;2023-01-08T02:06:02;9.30;99.90
35523;DHT22;61478;50.820;4.330;2023-01-08T02:09:01;9.30;99.90
35523;DHT22;61478;50.820;4.330;2023-01-08T02:11:52;9.30;99.90
35523;DHT22;61478;50.820;4.330;2023-01-08T02:17:32;9.30;99.90
35523;DHT22;61478;50.820;4.330;2023-01-08T02:20:10;9.40;99.90
35523;DHT22;61478;50.820;4.330;2023-01-08T02:23:41;9.40;99.90
35523;DHT22;61478;50.820;4.330;2023-01-08T02:26:11;9.40;99.90
35523;DHT22;61478;50.820;4.330;2023-01-08T02:28:50;9.50;99.90
35523;DHT22;61478;50.820;4.330;2023-01-08T02:31:18;9.60;99.90
35523;DHT22;61478;50.820;4.330;2023-01-08T02:33:45;9.50;99.90
35523;DHT22;61478;50.820;4.330;2023-01-08T02:50:10;9.30;99.90
35523;DHT22;61478;50.820;4.330;2023-01-08T02:52:48;9.30;99.90
35523;DHT22;61478;50.820;4.330;2023-01-08T02:55:20;9.30;99.90
35523;DHT22;61478;50.820;4.330;2023-01-08T02:57:47;9.40;99.90
35523;DHT22;61478;50.820;4.330;2023-01-08T03:00:17;9.30;99.90
35523;DHT22;61478;50.820;4.330;2023-01-08T03:02:43;9.40;99.90
35523;DHT22;61478;50.820;4.330;2023-01-08T03:05:21;9.40;99.90
35523;DHT22;61478;50.820;4.330;2023-01-08T03:07:48;9.40;99.90
35523;DHT22;61478;50.820;4.330;2023-01-08T03:10:15;9.40;99.90
35523;DHT22;61478;50.820;4.330;2023-01-08T03:12:55;9.50;99.90
35523;DHT22;61478;50.820;4.330;2023-01-08T03:15:26;9.50;99.90
35523;DHT22;61478;50.820;4.330;2023-01-08T03:17:57;9.50;99.90
35523;DHT22;61478;50.820;4.330;2023-01-08T03:20:25;9.40;99.90
35523;DHT22;61478;50.820;4.330;2023-01-08T03:22:56;9.40;99.90
35523;DHT22;61478;50.820;4.330;2023-01-08T03:25:24;9.30;99.90
35523;DHT22;61478;50.820;4.330;2023-01-08T03:27:58;9.30;99.90
35523;DHT22;61478;50.820;4.330;2023-01-08T03:30:28;9.30;99.90
35523;DHT22;61478;50.820;4.330;2023-01-08T03:32:57;9.30;99.90
35523;DHT22;61478;50.820;4.330;2023-01-08T03:35:25;9.20;99.90
35523;DHT22;61478;50.820;4.330;2023-01-08T03:38:02;9.20;99.90
35523;DHT22;61478;50.820;4.330;2023-01-08T03:40:39;9.20;99.90
35523;DHT22;61478;50.820;4.330;2023-01-08T03:43:11;9.20;99.90
35523;DHT22;61478;50.820;4.330;2023-01-08T03:45:40;9.20;99.90
35523;DHT22;61478;50.820;4.330;2023-01-08T03:48:15;9.10;99.90
35523;DHT22;61478;50.820;4.330;2023-01-08T03:50:41;9.10;99.90
35523;DHT22;61478;50.820;4.330;2023-01-08T03:53:07;9.10;99.90
35523;DHT22;61478;50.820;4.330;2023-01-08T03:55:34;9.00;99.90
35523;DHT22;61478;50.820;4.330;2023-01-08T03:58:00;9.00;99.90
35523;DHT22;61478;50.820;4.330;2023-01-08T04:00:26;9.00;99.90
35523;DHT22;61478;50.820;4.330;2023-01-08T04:02:51;9.00;99.90
35523;DHT22;61478;50.820;4.330;2023-01-08T04:05:17;8.90;99.90
35523;DHT22;61478;50.820;4.330;2023-01-08T04:07:43;8.90;99.90
35523;DHT22;61478;50.820;4.330;2023-01-08T04:10:09;8.80;99.90
35523;DHT22;61478;50.820;4.330;2023-01-08T04:12:35;8.90;99.90
35523;DHT22;61478;50.820;4.330;2023-01-08T04:15:01;8.90;99.90
35523;DHT22;61478;50.820;4.330;2023-01-08T04:17:27;8.90;99.90
35523;DHT22;61478;50.820;4.330;2023-01-08T04:19:53;8.80;99.90
35523;DHT22;61478;50.820;4.330;2023-01-08T04:22:19;8.80;99.90
35523;DHT22;61478;50.820;4.330;2023-01-08T04:24:46;8.70;99.90
35523;DHT22;61478;50.820;4.330;2023-01-08T04:27:12;8.70;99.90
35523;DHT22;61478;50.820;4.330;2023-01-08T04:29:38;8.70;99.90
35523;DHT22;61478;50.820;4.330;2023-01-08T04:32:04;8.60;99.90
35523;DHT22;61478;50.820;4.330;2023-01-08T04:34:30;8.70;99.90
35523;DHT22;61478;50.820;4.330;2023-01-08T04:36:59;8.60;99.90
35523;DHT22;61478;50.820;4.330;2023-01-08T04:39:26;8.60;99.90
35523;DHT22;61478;50.820;4.330;2023-01-08T04:41:52;8.50;99.90
35523;DHT22;61478;50.820;4.330;2023-01-08T04:44:21;8.50;99.90
35523;DHT22;61478;50.820;4.330;2023-01-08T04:46:48;8.50;99.90
35523;DHT22;61478;50.820;4.330;2023-01-08T04:49:14;8.50;99.90
35523;DHT22;61478;50.820;4.330;2023-01-08T04:51:40;8.40;99.90
35523;DHT22;61478;50.820;4.330;2023-01-08T04:54:06;8.40;99.90
35523;DHT22;61478;50.820;4.330;2023-01-08T04:56:33;8.40;99.90
35523;DHT22;61478;50.820;4.330;2023-01-08T04:59:01;8.40;99.90
35523;DHT22;61478;50.820;4.330;2023-01-08T05:01:27;8.30;99.90
35523;DHT22;61478;50.820;4.330;2023-01-08T05:04:02;8.30;99.90
35523;DHT22;61478;50.820;4.330;2023-01-08T05:06:29;8.30;99.90
35523;DHT22;61478;50.820;4.330;2023-01-08T05:08:57;8.30;99.90
35523;DHT22;61478;50.820;4.330;2023-01-08T05:11:24;8.30;99.90
35523;DHT22;61478;50.820;4.330;2023-01-08T05:13:51;8.30;99.90
35523;DHT22;61478;50.820;4.330;2023-01-08T05:16:17;8.20;99.90
35523;DHT22;61478;50.820;4.330;2023-01-08T05:18:44;8.20;99.90
35523;DHT22;61478;50.820;4.330;2023-01-08T05:21:11;8.30;99.90
35523;DHT22;61478;50.820;4.330;2023-01-08T05:23:37;8.20;99.90
35523;DHT22;61478;50.820;4.330;2023-01-08T05:26:05;8.20;99.90
35523;DHT22;61478;50.820;4.330;2023-01-08T05:28:32;8.10;99.90
35523;DHT22;61478;50.820;4.330;2023-01-08T05:30:59;8.20;99.90
35523;DHT22;61478;50.820;4.330;2023-01-08T05:33:26;8.10;99.90
35523;DHT22;61478;50.820;4.330;2023-01-08T05:35:52;8.10;99.90
35523;DHT22;61478;50.820;4.330;2023-01-08T05:38:18;8.10;99.90
35523;DHT22;61478;50.820;4.330;2023-01-08T05:40:44;8.10;99.90
35523;DHT22;61478;50.820;4.330;2023-01-08T05:43:10;8.10;99.90
35523;DHT22;61478;50.820;4.330;2023-01-08T05:45:36;8.10;99.90
35523;DHT22;61478;50.820;4.330;2023-01-08T05:48:06;8.10;99.90
35523;DHT22;61478;50.820;4.330;2023-01-08T05:50:33;8.10;99.90
35523;DHT22;61478;50.820;4.330;2023-01-08T05:53:00;8.10;99.90
35523;DHT22;61478;50.820;4.330;2023-01-08T05:55:26;8.10;99.90
35523;DHT22;61478;50.820;4.330;2023-01-08T05:57:52;8.10;99.90
35523;DHT22;61478;50.820;4.330;2023-01-08T06:00:18;8.10;99.90
35523;DHT22;61478;50.820;4.330;2023-01-08T06:02:46;8.10;99.90
35523;DHT22;61478;50.820;4.330;2023-01-08T06:05:12;8.00;99.90
35523;DHT22;61478;50.820;4.330;2023-01-08T06:07:38;8.10;99.90
35523;DHT22;61478;50.820;4.330;2023-01-08T06:10:04;8.10;99.90
35523;DHT22;61478;50.820;4.330;2023-01-08T06:12:33;8.10;99.90
35523;DHT22;61478;50.820;4.330;2023-01-08T06:15:06;8.10;99.90
35523;DHT22;61478;50.820;4.330;2023-01-08T06:17:33;8.10;99.90
35523;DHT22;61478;50.820;4.330;2023-01-08T06:19:59;8.10;99.90
35523;DHT22;61478;50.820;4.330;2023-01-08T06:22:25;8.10;99.90
35523;DHT22;61478;50.820;4.330;2023-01-08T06:24:52;8.10;99.90
35523;DHT22;61478;50.820;4.330;2023-01-08T06:27:18;8.10;99.90
35523;DHT22;61478;50.820;4.330;2023-01-08T06:29:47;8.10;99.90
35523;DHT22;61478;50.820;4.330;2023-01-08T06:32:13;8.10;99.90
35523;DHT22;61478;50.820;4.330;2023-01-08T06:34:40;8.10;99.90
35523;DHT22;61478;50.820;4.330;2023-01-08T06:37:09;8.10;99.90
35523;DHT22;61478;50.820;4.330;2023-01-08T06:39:38;8.10;99.90
35523;DHT22;61478;50.820;4.330;2023-01-08T06:42:04;8.10;99.90
35523;DHT22;61478;50.820;4.330;2023-01-08T06:44:33;8.00;99.90
35523;DHT22;61478;50.820;4.330;2023-01-08T06:47:00;8.10;99.90
35523;DHT22;61478;50.820;4.330;2023-01-08T06:49:26;8.10;99.90
35523;DHT22;61478;50.820;4.330;2023-01-08T06:51:52;8.10;99.90
35523;DHT22;61478;50.820;4.330;2023-01-08T06:54:21;8.10;99.90
35523;DHT22;61478;50.820;4.330;2023-01-08T06:56:48;8.10;99.90
35523;DHT22;61478;50.820;4.330;2023-01-08T06:59:14;8.20;99.90
35523;DHT22;61478;50.820;4.330;2023-01-08T07:01:43;8.20;99.90
35523;DHT22;61478;50.820;4.330;2023-01-08T07:04:10;8.20;99.90
35523;DHT22;61478;50.820;4.330;2023-01-08T07:06:38;8.20;99.90
35523;DHT22;61478;50.820;4.330;2023-01-08T07:09:04;8.30;99.90
35523;DHT22;61478;50.820;4.330;2023-01-08T07:11:33;8.30;99.90
35523;DHT22;61478;50.820;4.330;2023-01-08T07:14:00;8.30;99.90
35523;DHT22;61478;50.820;4.330;2023-01-08T07:16:28;8.30;99.90
35523;DHT22;61478;50.820;4.330;2023-01-08T07:18:54;8.30;99.90
35523;DHT22;61478;50.820;4.330;2023-01-08T07:21:20;8.40;99.90
35523;DHT22;61478;50.820;4.330;2023-01-08T07:23:50;8.40;99.90
35523;DHT22;61478;50.820;4.330;2023-01-08T07:26:19;8.30;99.90
35523;DHT22;61478;50.820;4.330;2023-01-08T07:28:45;8.40;99.90
35523;DHT22;61478;50.820;4.330;2023-01-08T07:31:11;8.40;99.90
35523;DHT22;61478;50.820;4.330;2023-01-08T07:33:37;8.40;99.90
35523;DHT22;61478;50.820;4.330;2023-01-08T07:36:04;8.40;99.90
35523;DHT22;61478;50.820;4.330;2023-01-08T07:38:30;8.40;99.90
35523;DHT22;61478;50.820;4.330;2023-01-08T07:40:57;8.50;99.90
35523;DHT22;61478;50.820;4.330;2023-01-08T07:43:31;8.50;99.90
35523;DHT22;61478;50.820;4.330;2023-01-08T07:46:03;8.50;99.90
35523;DHT22;61478;50.820;4.330;2023-01-08T07:48:31;8.50;99.90
35523;DHT22;61478;50.820;4.330;2023-01-08T07:51:04;8.50;99.90
35523;DHT22;61478;50.820;4.330;2023-01-08T07:53:35;8.50;99.90
35523;DHT22;61478;50.820;4.330;2023-01-08T07:56:06;8.50;99.90
35523;DHT22;61478;50.820;4.330;2023-01-08T07:58:38;8.60;99.90
35523;DHT22;61478;50.820;4.330;2023-01-08T08:01:09;8.60;99.90
35523;DHT22;61478;50.820;4.330;2023-01-08T08:03:39;8.60;99.90
35523;DHT22;61478;50.820;4.330;2023-01-08T08:06:05;8.60;99.90
35523;DHT22;61478;50.820;4.330;2023-01-08T08:08:31;8.60;99.90
35523;DHT22;61478;50.820;4.330;2023-01-08T08:11:01;8.60;99.90
35523;DHT22;61478;50.820;4.330;2023-01-08T08:13:27;8.70;99.90
35523;DHT22;61478;50.820;4.330;2023-01-08T08:15:53;8.70;99.90
35523;DHT22;61478;50.820;4.330;2023-01-08T08:18:19;8.70;99.90
35523;DHT22;61478;50.820;4.330;2023-01-08T08:20:45;8.70;99.90
35523;DHT22;61478;50.820;4.330;2023-01-08T08:23:13;8.70;99.90
35523;DHT22;61478;50.820;4.330;2023-01-08T08:25:40;8.70;99.90
35523;DHT22;61478;50.820;4.330;2023-01-08T08:28:09;8.70;99.90
35523;DHT22;61478;50.820;4.330;2023-01-08T08:30:35;8.80;99.90
35523;DHT22;61478;50.820;4.330;2023-01-08T08:33:03;8.90;99.90
35523;DHT22;61478;50.820;4.330;2023-01-08T08:35:31;8.90;99.90
35523;DHT22;61478;50.820;4.330;2023-01-08T08:37:58;8.90;99.90
35523;DHT22;61478;50.820;4.330;2023-01-08T08:40:24;8.80;99.90
35523;DHT22;61478;50.820;4.330;2023-01-08T08:42:59;8.90;99.90
35523;DHT22;61478;50.820;4.330;2023-01-08T08:45:25;8.90;99.90
35523;DHT22;61478;50.820;4.330;2023-01-08T08:47:52;8.90;99.90
35523;DHT22;61478;50.820;4.330;2023-01-08T08:50:22;8.80;99.90
35523;DHT22;61478;50.820;4.330;2023-01-08T08:52:48;8.80;99.90
35523;DHT22;61478;50.820;4.330;2023-01-08T08:55:17;8.80;99.90
35523;DHT22;61478;50.820;4.330;2023-01-08T08:57:44;8.80;99.90
35523;DHT22;61478;50.820;4.330;2023-01-08T09:00:14;8.70;99.90
35523;DHT22;61478;50.820;4.330;2023-01-08T09:02:40;8.80;99.90
35523;DHT22;61478;50.820;4.330;2023-01-08T09:05:10;8.80;99.90
35523;DHT22;61478;50.820;4.330;2023-01-08T09:07:37;8.80;99.90
35523;DHT22;61478;50.820;4.330;2023-01-08T09:10:03;8.80;99.90
35523;DHT22;61478;50.820;4.330;2023-01-08T09:12:29;8.80;99.90
35523;DHT22;61478;50.820;4.330;2023-01-08T09:14:55;8.80;99.90
35523;DHT22;61478;50.820;4.330;2023-01-08T09:17:22;8.80;99.90
35523;DHT22;61478;50.820;4.330;2023-01-08T09:19:51;8.80;99.90
35523;DHT22;61478;50.820;4.330;2023-01-08T09:22:18;8.90;99.90
35523;DHT22;61478;50.820;4.330;2023-01-08T09:24:44;8.80;99.90
35523;DHT22;61478;50.820;4.330;2023-01-08T09:27:10;8.90;99.90
35523;DHT22;61478;50.820;4.330;2023-01-08T09:29:36;8.80;99.90
35523;DHT22;61478;50.820;4.330;2023-01-08T09:32:05;8.80;99.90
35523;DHT22;61478;50.820;4.330;2023-01-08T09:34:32;8.80;99.90
35523;DHT22;61478;50.820;4.330;2023-01-08T09:37:01;8.80;99.90
35523;DHT22;61478;50.820;4.330;2023-01-08T09:39:31;8.80;99.90
35523;DHT22;61478;50.820;4.330;2023-01-08T09:42:00;8.90;99.90
35523;DHT22;61478;50.820;4.330;2023-01-08T09:44:30;8.90;99.90
35523;DHT22;61478;50.820;4.330;2023-01-08T09:46:59;9.00;99.90
35523;DHT22;61478;50.820;4.330;2023-01-08T09:49:30;9.00;99.90
35523;DHT22;61478;50.820;4.330;2023-01-08T09:51:58;9.10;99.90
35523;DHT22;61478;50.820;4.330;2023-01-08T09:54:25;9.10;99.90
35523;DHT22;61478;50.820;4.330;2023-01-08T09:56:52;9.20;99.90
35523;DHT22;61478;50.820;4.330;2023-01-08T09:59:19;9.10;99.90
35523;DHT22;61478;50.820;4.330;2023-01-08T10:01:45;9.20;99.90
35523;DHT22;61478;50.820;4.330;2023-01-08T10:04:24;9.20;99.90
35523;DHT22;61478;50.820;4.330;2023-01-08T10:07:10;9.30;99.90
35523;DHT22;61478;50.820;4.330;2023-01-08T10:09:39;9.40;99.90
35523;DHT22;61478;50.820;4.330;2023-01-08T10:12:05;9.40;99.90
35523;DHT22;61478;50.820;4.330;2023-01-08T10:14:36;9.50;99.90
35523;DHT22;61478;50.820;4.330;2023-01-08T10:17:35;9.40;99.90
35523;DHT22;61478;50.820;4.330;2023-01-08T10:20:13;9.40;99.90
35523;DHT22;61478;50.820;4.330;2023-01-08T10:22:38;9.40;99.90
35523;DHT22;61478;50.820;4.330;2023-01-08T10:25:12;9.40;99.90
35523;DHT22;61478;50.820;4.330;2023-01-08T10:30:28;9.50;99.90
35523;DHT22;61478;50.820;4.330;2023-01-08T10:33:04;9.50;99.90
35523;DHT22;61478;50.820;4.330;2023-01-08T10:35:38;9.50;99.90
35523;DHT22;61478;50.820;4.330;2023-01-08T10:38:05;9.60;99.90
35523;DHT22;61478;50.820;4.330;2023-01-08T10:40:46;9.70;99.90
35523;DHT22;61478;50.820;4.330;2023-01-08T10:43:19;9.90;99.90
35523;DHT22;61478;50.820;4.330;2023-01-08T10:46:00;10.00;99.90
35523;DHT22;61478;50.820;4.330;2023-01-08T10:48:47;10.00;99.90
35523;DHT22;61478;50.820;4.330;2023-01-08T10:51:19;9.90;99.90
35523;DHT22;61478;50.820;4.330;2023-01-08T10:53:45;9.90;99.90
35523;DHT22;61478;50.820;4.330;2023-01-08T10:56:28;10.00;99.90
35523;DHT22;61478;50.820;4.330;2023-01-08T10:58:55;10.00;99.90
35523;DHT22;61478;50.820;4.330;2023-01-08T11:01:26;10.10;99.90
35523;DHT22;61478;50.820;4.330;2023-01-08T11:04:03;10.20;99.90
35523;DHT22;61478;50.820;4.330;2023-01-08T11:06:39;10.20;99.90
35523;DHT22;61478;50.820;4.330;2023-01-08T11:11:44;10.20;99.90
35523;DHT22;61478;50.820;4.330;2023-01-08T11:14:18;10.20;99.90
35523;DHT22;61478;50.820;4.330;2023-01-08T11:16:46;10.10;99.90
35523;DHT22;61478;50.820;4.330;2023-01-08T11:19:18;10.30;99.90
35523;DHT22;61478;50.820;4.330;2023-01-08T11:22:00;10.50;99.90
35523;DHT22;61478;50.820;4.330;2023-01-08T11:24:35;10.40;99.90
35523;DHT22;61478;50.820;4.330;2023-01-08T11:27:14;10.40;99.90
35523;DHT22;61478;50.820;4.330;2023-01-08T11:30:01;10.60;99.90
35523;DHT22;61478;50.820;4.330;2023-01-08T11:32:49;10.60;99.90
35523;DHT22;61478;50.820;4.330;2023-01-08T11:35:28;10.60;99.90
35523;DHT22;61478;50.820;4.330;2023-01-08T11:37:58;10.60;99.90
35523;DHT22;61478;50.820;4.330;2023-01-08T12:00:20;11.00;99.90
35523;DHT22;61478;50.820;4.330;2023-01-08T12:02:52;10.80;99.90
35523;DHT22;61478;50.820;4.330;2023-01-08T12:08:17;10.90;99.90
35523;DHT22;61478;50.820;4.330;2023-01-08T12:19:13;10.80;99.90
35523;DHT22;61478;50.820;4.330;2023-01-08T12:22:01;10.70;99.90
35523;DHT22;61478;50.820;4.330;2023-01-08T12:27:26;10.60;99.90
35523;DHT22;61478;50.820;4.330;2023-01-08T12:32:53;10.40;99.90
35523;DHT22;61478;50.820;4.330;2023-01-08T12:38:28;10.40;99.90
35523;DHT22;61478;50.820;4.330;2023-01-08T12:40:59;10.40;99.90
35523;DHT22;61478;50.820;4.330;2023-01-08T12:44:04;10.40;99.90
35523;DHT22;61478;50.820;4.330;2023-01-08T12:46:34;10.40;99.90
35523;DHT22;61478;50.820;4.330;2023-01-08T12:49:01;10.50;99.90
35523;DHT22;61478;50.820;4.330;2023-01-08T12:51:53;10.50;99.90
35523;DHT22;61478;50.820;4.330;2023-01-08T13:04:54;10.60;99.90
35523;DHT22;61478;50.820;4.330;2023-01-08T13:07:25;10.70;99.90
35523;DHT22;61478;50.820;4.330;2023-01-08T13:12:51;10.80;99.90
35523;DHT22;61478;50.820;4.330;2023-01-08T13:15:25;10.80;99.90
35523;DHT22;61478;50.820;4.330;2023-01-08T13:17:56;10.90;99.90
35523;DHT22;61478;50.820;4.330;2023-01-08T13:20:32;10.90;99.90
35523;DHT22;61478;50.820;4.330;2023-01-08T13:23:01;11.10;99.90
35523;DHT22;61478;50.820;4.330;2023-01-08T13:25:33;11.20;99.90
35523;DHT22;61478;50.820;4.330;2023-01-08T13:28:16;11.20;99.90
35523;DHT22;61478;50.820;4.330;2023-01-08T13:30:42;11.10;99.90
35523;DHT22;61478;50.820;4.330;2023-01-08T13:38:39;11.00;99.90
35523;DHT22;61478;50.820;4.330;2023-01-08T13:41:28;11.00;99.90
35523;DHT22;61478;50.820;4.330;2023-01-08T13:43:58;11.00;99.90
35523;DHT22;61478;50.820;4.330;2023-01-08T13:46:25;11.00;99.90
35523;DHT22;61478;50.820;4.330;2023-01-08T13:48:59;11.00;99.90
35523;DHT22;61478;50.820;4.330;2023-01-08T13:51:39;11.00;99.90
35523;DHT22;61478;50.820;4.330;2023-01-08T13:56:43;11.00;99.90
35523;DHT22;61478;50.820;4.330;2023-01-08T13:59:23;11.00;99.90
35523;DHT22;61478;50.820;4.330;2023-01-08T14:01:52;11.00;99.90
35523;DHT22;61478;50.820;4.330;2023-01-08T14:04:23;10.90;99.90
35523;DHT22;61478;50.820;4.330;2023-01-08T14:06:49;10.90;99.90
35523;DHT22;61478;50.820;4.330;2023-01-08T14:09:26;10.80;99.90
35523;DHT22;61478;50.820;4.330;2023-01-08T14:11:53;10.80;99.90
35523;DHT22;61478;50.820;4.330;2023-01-08T14:14:23;10.80;99.90
35523;DHT22;61478;50.820;4.330;2023-01-08T14:16:51;10.80;99.90
35523;DHT22;61478;50.820;4.330;2023-01-08T14:19:20;10.90;99.90
35523;DHT22;61478;50.820;4.330;2023-01-08T14:21:51;10.90;99.90
35523;DHT22;61478;50.820;4.330;2023-01-08T14:24:19;10.90;99.90
35523;DHT22;61478;50.820;4.330;2023-01-08T14:26:55;10.80;99.90
35523;DHT22;61478;50.820;4.330;2023-01-08T14:29:23;10.80;99.90
35523;DHT22;61478;50.820;4.330;2023-01-08T14:31:53;10.80;99.90
35523;DHT22;61478;50.820;4.330;2023-01-08T14:34:21;10.70;99.90
35523;DHT22;61478;50.820;4.330;2023-01-08T14:36:52;10.70;99.90
35523;DHT22;61478;50.820;4.330;2023-01-08T14:39:33;10.70;99.90
35523;DHT22;61478;50.820;4.330;2023-01-08T14:42:23;10.70;99.90
35523;DHT22;61478;50.820;4.330;2023-01-08T14:47:45;10.70;99.90
35523;DHT22;61478;50.820;4.330;2023-01-08T14:50:25;10.70;99.90
35523;DHT22;61478;50.820;4.330;2023-01-08T14:52:58;10.60;99.90
35523;DHT22;61478;50.820;4.330;2023-01-08T14:55:26;10.60;99.90
35523;DHT22;61478;50.820;4.330;2023-01-08T14:57:54;10.50;99.90
35523;DHT22;61478;50.820;4.330;2023-01-08T15:00:27;10.50;99.90
35523;DHT22;61478;50.820;4.330;2023-01-08T15:02:53;10.50;99.90
35523;DHT22;61478;50.820;4.330;2023-01-08T15:05:30;10.50;99.90
35523;DHT22;61478;50.820;4.330;2023-01-08T15:08:02;10.40;99.90
35523;DHT22;61478;50.820;4.330;2023-01-08T15:10:39;10.40;99.90
35523;DHT22;61478;50.820;4.330;2023-01-08T15:13:05;10.40;99.90
35523;DHT22;61478;50.820;4.330;2023-01-08T15:15:35;10.50;99.90
35523;DHT22;61478;50.820;4.330;2023-01-08T15:18:05;10.40;99.90
35523;DHT22;61478;50.820;4.330;2023-01-08T15:20:33;10.40;99.90
35523;DHT22;61478;50.820;4.330;2023-01-08T15:22:59;10.40;99.90
35523;DHT22;61478;50.820;4.330;2023-01-08T15:25:26;10.40;99.90
35523;DHT22;61478;50.820;4.330;2023-01-08T15:28:01;10.40;99.90
35523;DHT22;61478;50.820;4.330;2023-01-08T15:30:33;10.40;99.90
35523;DHT22;61478;50.820;4.330;2023-01-08T15:33:13;10.40;99.90
35523;DHT22;61478;50.820;4.330;2023-01-08T15:35:40;10.40;99.90
35523;DHT22;61478;50.820;4.330;2023-01-08T15:38:07;10.40;99.90
35523;DHT22;61478;50.820;4.330;2023-01-08T15:40:33;10.40;99.90
35523;DHT22;61478;50.820;4.330;2023-01-08T15:42:59;10.50;99.90
35523;DHT22;61478;50.820;4.330;2023-01-08T15:45:35;10.40;99.90
35523;DHT22;61478;50.820;4.330;2023-01-08T15:48:02;10.40;99.90
35523;DHT22;61478;50.820;4.330;2023-01-08T15:50:28;10.40;99.90
35523;DHT22;61478;50.820;4.330;2023-01-08T15:52:57;10.30;99.90
35523;DHT22;61478;50.820;4.330;2023-01-08T15:55:25;10.40;99.90
35523;DHT22;61478;50.820;4.330;2023-01-08T15:57:51;10.40;99.90
35523;DHT22;61478;50.820;4.330;2023-01-08T16:00:20;10.40;99.90
35523;DHT22;61478;50.820;4.330;2023-01-08T16:02:49;10.40;99.90
35523;DHT22;61478;50.820;4.330;2023-01-08T16:05:16;10.40;99.90
35523;DHT22;61478;50.820;4.330;2023-01-08T16:07:43;10.40;99.90
35523;DHT22;61478;50.820;4.330;2023-01-08T16:10:15;10.30;99.90
35523;DHT22;61478;50.820;4.330;2023-01-08T16:12:41;10.30;99.90
35523;DHT22;61478;50.820;4.330;2023-01-08T16:15:11;10.30;99.90
35523;DHT22;61478;50.820;4.330;2023-01-08T16:17:37;10.30;99.90
35523;DHT22;61478;50.820;4.330;2023-01-08T16:20:04;10.30;99.90
35523;DHT22;61478;50.820;4.330;2023-01-08T16:22:31;10.30;99.90
35523;DHT22;61478;50.820;4.330;2023-01-08T16:24:57;10.30;99.90
35523;DHT22;61478;50.820;4.330;2023-01-08T16:27:23;10.30;99.90
35523;DHT22;61478;50.820;4.330;2023-01-08T16:29:49;10.20;99.90
35523;DHT22;61478;50.820;4.330;2023-01-08T16:32:15;10.20;99.90
35523;DHT22;61478;50.820;4.330;2023-01-08T16:34:41;10.20;99.90
35523;DHT22;61478;50.820;4.330;2023-01-08T16:37:07;10.20;99.90
35523;DHT22;61478;50.820;4.330;2023-01-08T16:39:33;10.10;99.90
35523;DHT22;61478;50.820;4.330;2023-01-08T16:41:59;10.10;99.90
35523;DHT22;61478;50.820;4.330;2023-01-08T16:44:25;10.00;99.90
35523;DHT22;61478;50.820;4.330;2023-01-08T16:46:55;10.00;99.90
35523;DHT22;61478;50.820;4.330;2023-01-08T16:49:22;10.00;99.90
35523;DHT22;61478;50.820;4.330;2023-01-08T16:51:48;10.00;99.90
35523;DHT22;61478;50.820;4.330;2023-01-08T16:54:15;10.00;99.90
35523;DHT22;61478;50.820;4.330;2023-01-08T16:56:41;9.90;99.90
35523;DHT22;61478;50.820;4.330;2023-01-08T16:59:08;9.90;99.90
35523;DHT22;61478;50.820;4.330;2023-01-08T17:01:34;9.80;99.90
35523;DHT22;61478;50.820;4.330;2023-01-08T17:04:01;9.80;99.90
35523;DHT22;61478;50.820;4.330;2023-01-08T17:06:27;9.80;99.90
35523;DHT22;61478;50.820;4.330;2023-01-08T17:08:53;9.80;99.90
35523;DHT22;61478;50.820;4.330;2023-01-08T17:11:22;9.80;99.90
35523;DHT22;61478;50.820;4.330;2023-01-08T17:13:48;9.90;99.90
35523;DHT22;61478;50.820;4.330;2023-01-08T17:16:17;9.90;99.90
35523;DHT22;61478;50.820;4.330;2023-01-08T17:18:44;9.90;99.90
35523;DHT22;61478;50.820;4.330;2023-01-08T17:21:12;9.90;99.90
35523;DHT22;61478;50.820;4.330;2023-01-08T17:23:39;9.90;99.90
35523;DHT22;61478;50.820;4.330;2023-01-08T17:26:08;9.90;99.90
35523;DHT22;61478;50.820;4.330;2023-01-08T17:28:37;9.90;99.90